sensor_id;sensor_type;location;lat;lon;timestamp;temperature;humidity
62476;DHT22;50739;45.670;11.936;2023-05-10T00:02:59;17.93;59.25
62476;DHT22;50739;45.670;11.936;2023-05-10T00:08:01;17.90;59.37
62476;DHT22;50739;45.670;11.936;2023-05-10T00:13:03;17.80;59.12
62476;DHT22;50739;45.670;11.936;2023-05-10T00:18:07;17.84;59.21
62476;DHT22;50739;45.670;11.936;2023-05-10T00:23:09;17.82;59.35
62476;DHT22;50739;45.670;11.936;2023-05-10T00:28:12;17.79;59.46
62476;DHT22;50739;45.670;11.936;2023-05-10T00:33:15;17.61;60.23
62476;DHT22;50739;45.670;11.936;2023-05-10T00:38:19;17.62;60.04
62476;DHT22;50739;45.670;11.936;2023-05-10T00:43:21;17.65;59.95
62476;DHT22;50739;45.670;11.936;2023-05-10T00:48:24;17.47;61.02
62476;DHT22;50739;45.670;11.936;2023-05-10T00:53:27;17.49;62.57
62476;DHT22;50739;45.670;11.936;2023-05-10T00:58:30;17.46;64.30
62476;DHT22;50739;45.670;11.936;2023-05-10T01:03:34;17.29;65.22
62476;DHT22;50739;45.670;11.936;2023-05-10T01:08:38;17.28;65.10
62476;DHT22;50739;45.670;11.936;2023-05-10T01:13:42;17.17;66.20
62476;DHT22;50739;45.670;11.936;2023-05-10T01:18:47;17.06;65.79
62476;DHT22;50739;45.670;11.936;2023-05-10T01:24:12;17.11;66.58
62476;DHT22;50739;45.670;11.936;2023-05-10T01:35:00;16.92;67.82
62476;DHT22;50739;45.670;11.936;2023-05-10T01:40:12;16.84;67.51
62476;DHT22;50739;45.670;11.936;2023-05-10T01:45:21;16.63;68.51
62476;DHT22;50739;45.670;11.936;2023-05-10T01:50:30;16.64;69.17
62476;DHT22;50739;45.670;11.936;2023-05-10T01:55:35;16.55;69.05
62476;DHT22;50739;45.670;11.936;2023-05-10T02:00:40;16.63;68.40
62476;DHT22;50739;45.670;11.936;2023-05-10T02:05:46;16.45;69.83
62476;DHT22;50739;45.670;11.936;2023-05-10T02:10:52;16.49;68.53
62476;DHT22;50739;45.670;11.936;2023-05-10T02:15:56;16.53;68.67
62476;DHT22;50739;45.670;11.936;2023-05-10T02:21:01;16.49;69.00
62476;DHT22;50739;45.670;11.936;2023-05-10T02:26:04;16.45;68.69
62476;DHT22;50739;45.670;11.936;2023-05-10T02:31:07;16.33;68.81
62476;DHT22;50739;45.670;11.936;2023-05-10T02:36:12;16.42;67.87
62476;DHT22;50739;45.670;11.936;2023-05-10T02:41:16;16.26;67.99
62476;DHT22;50739;45.670;11.936;2023-05-10T02:46:18;16.19;69.19
62476;DHT22;50739;45.670;11.936;2023-05-10T02:51:24;16.29;68.34
62476;DHT22;50739;45.670;11.936;2023-05-10T02:56:31;16.28;66.55
62476;DHT22;50739;45.670;11.936;2023-05-10T03:01:34;16.02;69.11
62476;DHT22;50739;45.670;11.936;2023-05-10T03:06:38;16.19;68.69
62476;DHT22;50739;45.670;11.936;2023-05-10T03:11:49;15.97;68.94
62476;DHT22;50739;45.670;11.936;2023-05-10T03:17:00;16.06;68.64
62476;DHT22;50739;45.670;11.936;2023-05-10T03:22:10;16.00;69.67
62476;DHT22;50739;45.670;11.936;2023-05-10T03:27:14;15.68;69.69
62476;DHT22;50739;45.670;11.936;2023-05-10T03:32:17;15.80;70.03
62476;DHT22;50739;45.670;11.936;2023-05-10T03:37:20;15.76;69.68
62476;DHT22;50739;45.670;11.936;2023-05-10T03:42:22;15.91;69.93
62476;DHT22;50739;45.670;11.936;2023-05-10T03:47:25;15.93;70.04
62476;DHT22;50739;45.670;11.936;2023-05-10T03:52:29;15.90;70.03
62476;DHT22;50739;45.670;11.936;2023-05-10T03:57:31;15.74;70.38
62476;DHT22;50739;45.670;11.936;2023-05-10T04:02:33;15.68;71.33
62476;DHT22;50739;45.670;11.936;2023-05-10T04:07:37;15.64;71.89
62476;DHT22;50739;45.670;11.936;2023-05-10T04:12:39;15.53;72.18
62476;DHT22;50739;45.670;11.936;2023-05-10T04:17:41;15.56;71.74
62476;DHT22;50739;45.670;11.936;2023-05-10T04:22:45;15.53;72.03
62476;DHT22;50739;45.670;11.936;2023-05-10T04:27:47;15.57;71.59
62476;DHT22;50739;45.670;11.936;2023-05-10T04:32:49;15.47;72.57
62476;DHT22;50739;45.670;11.936;2023-05-10T04:37:53;15.43;73.26
62476;DHT22;50739;45.670;11.936;2023-05-10T04:42:55;15.46;74.39
62476;DHT22;50739;45.670;11.936;2023-05-10T04:47:57;15.53;74.06
62476;DHT22;50739;45.670;11.936;2023-05-10T04:53:01;15.29;74.92
62476;DHT22;50739;45.670;11.936;2023-05-10T04:58:03;15.32;74.59
62476;DHT22;50739;45.670;11.936;2023-05-10T05:03:05;15.47;74.70
62476;DHT22;50739;45.670;11.936;2023-05-10T05:08:09;15.39;76.15
62476;DHT22;50739;45.670;11.936;2023-05-10T05:13:12;15.38;74.95
62476;DHT22;50739;45.670;11.936;2023-05-10T05:18:14;15.30;75.49
62476;DHT22;50739;45.670;11.936;2023-05-10T05:23:18;15.25;76.73
62476;DHT22;50739;45.670;11.936;2023-05-10T05:28:21;15.25;76.25
62476;DHT22;50739;45.670;11.936;2023-05-10T05:33:23;15.32;76.95
62476;DHT22;50739;45.670;11.936;2023-05-10T05:38:27;15.11;77.79
62476;DHT22;50739;45.670;11.936;2023-05-10T05:43:29;15.12;77.97
62476;DHT22;50739;45.670;11.936;2023-05-10T05:48:31;15.06;78.84
62476;DHT22;50739;45.670;11.936;2023-05-10T05:53:35;15.23;78.11
62476;DHT22;50739;45.670;11.936;2023-05-10T05:58:37;15.15;78.95
62476;DHT22;50739;45.670;11.936;2023-05-10T06:03:39;15.21;79.16
62476;DHT22;50739;45.670;11.936;2023-05-10T06:08:43;15.09;79.58
62476;DHT22;50739;45.670;11.936;2023-05-10T06:13:45;14.99;80.92
62476;DHT22;50739;45.670;11.936;2023-05-10T06:18:48;14.98;80.43
62476;DHT22;50739;45.670;11.936;2023-05-10T06:23:51;14.84;82.34
62476;DHT22;50739;45.670;11.936;2023-05-10T06:28:53;15.01;81.38
62476;DHT22;50739;45.670;11.936;2023-05-10T06:33:56;14.95;80.83
62476;DHT22;50739;45.670;11.936;2023-05-10T06:39:00;14.87;82.87
62476;DHT22;50739;45.670;11.936;2023-05-10T06:44:02;14.83;81.96
62476;DHT22;50739;45.670;11.936;2023-05-10T06:49:04;14.73;82.52
62476;DHT22;50739;45.670;11.936;2023-05-10T06:54:08;14.77;84.29
62476;DHT22;50739;45.670;11.936;2023-05-10T06:59:10;14.70;83.93
62476;DHT22;50739;45.670;11.936;2023-05-10T07:04:14;14.74;84.49
62476;DHT22;50739;45.670;11.936;2023-05-10T07:09:17;14.77;84.68
62476;DHT22;50739;45.670;11.936;2023-05-10T07:14:20;14.77;84.73
62476;DHT22;50739;45.670;11.936;2023-05-10T07:19:22;14.75;85.38
62476;DHT22;50739;45.670;11.936;2023-05-10T07:24:26;14.80;84.78
62476;DHT22;50739;45.670;11.936;2023-05-10T07:29:28;14.70;85.93
62476;DHT22;50739;45.670;11.936;2023-05-10T07:34:30;14.84;85.27
62476;DHT22;50739;45.670;11.936;2023-05-10T07:39:34;14.78;84.51
62476;DHT22;50739;45.670;11.936;2023-05-10T07:44:36;14.78;85.32
62476;DHT22;50739;45.670;11.936;2023-05-10T07:49:38;14.74;85.83
62476;DHT22;50739;45.670;11.936;2023-05-10T07:54:42;14.85;85.37
62476;DHT22;50739;45.670;11.936;2023-05-10T07:59:45;14.70;85.86
62476;DHT22;50739;45.670;11.936;2023-05-10T08:04:47;14.61;86.31
62476;DHT22;50739;45.670;11.936;2023-05-10T08:09:51;14.53;85.67
62476;DHT22;50739;45.670;11.936;2023-05-10T08:14:53;14.51;86.54
62476;DHT22;50739;45.670;11.936;2023-05-10T08:19:55;14.56;86.65
62476;DHT22;50739;45.670;11.936;2023-05-10T08:24:59;14.27;87.56
62476;DHT22;50739;45.670;11.936;2023-05-10T08:30:01;14.57;85.91
62476;DHT22;50739;45.670;11.936;2023-05-10T08:35:04;14.54;86.06
62476;DHT22;50739;45.670;11.936;2023-05-10T08:40:09;14.51;86.92
62476;DHT22;50739;45.670;11.936;2023-05-10T08:45:13;14.40;87.39
62476;DHT22;50739;45.670;11.936;2023-05-10T08:50:19;14.60;88.06
62476;DHT22;50739;45.670;11.936;2023-05-10T08:55:24;14.60;87.57
62476;DHT22;50739;45.670;11.936;2023-05-10T09:00:26;14.63;87.87
62476;DHT22;50739;45.670;11.936;2023-05-10T09:05:30;14.64;87.49
62476;DHT22;50739;45.670;11.936;2023-05-10T09:10:34;14.57;88.30
62476;DHT22;50739;45.670;11.936;2023-05-10T09:15:36;14.48;88.34
62476;DHT22;50739;45.670;11.936;2023-05-10T09:20:39;14.46;88.81
62476;DHT22;50739;45.670;11.936;2023-05-10T09:25:43;14.59;88.87
62476;DHT22;50739;45.670;11.936;2023-05-10T09:30:53;14.54;90.29
62476;DHT22;50739;45.670;11.936;2023-05-10T09:36:06;14.56;88.03
62476;DHT22;50739;45.670;11.936;2023-05-10T09:41:17;14.54;88.91
62476;DHT22;50739;45.670;11.936;2023-05-10T09:46:19;14.57;88.44
62476;DHT22;50739;45.670;11.936;2023-05-10T09:51:22;14.53;88.74
62476;DHT22;50739;45.670;11.936;2023-05-10T09:56:35;14.61;88.46
62476;DHT22;50739;45.670;11.936;2023-05-10T10:01:40;14.53;88.80
62476;DHT22;50739;45.670;11.936;2023-05-10T10:06:43;14.75;88.53
62476;DHT22;50739;45.670;11.936;2023-05-10T10:11:47;14.68;88.52
62476;DHT22;50739;45.670;11.936;2023-05-10T10:16:49;14.75;88.39
62476;DHT22;50739;45.670;11.936;2023-05-10T10:21:51;14.75;89.08
62476;DHT22;50739;45.670;11.936;2023-05-10T10:26:58;14.67;89.41
62476;DHT22;50739;45.670;11.936;2023-05-10T10:32:12;14.56;87.86
62476;DHT22;50739;45.670;11.936;2023-05-10T10:37:20;14.67;88.19
62476;DHT22;50739;45.670;11.936;2023-05-10T10:42:47;14.63;88.40
62476;DHT22;50739;45.670;11.936;2023-05-10T10:53:11;14.54;88.42
62476;DHT22;50739;45.670;11.936;2023-05-10T10:58:29;14.50;88.33
62476;DHT22;50739;45.670;11.936;2023-05-10T11:03:32;14.50;87.45
62476;DHT22;50739;45.670;11.936;2023-05-10T11:08:41;14.48;88.28
62476;DHT22;50739;45.670;11.936;2023-05-10T11:13:46;14.50;87.42
62476;DHT22;50739;45.670;11.936;2023-05-10T11:18:54;14.46;89.46
62476;DHT22;50739;45.670;11.936;2023-05-10T11:23:59;14.60;89.27
62476;DHT22;50739;45.670;11.936;2023-05-10T11:29:07;14.57;89.13
62476;DHT22;50739;45.670;11.936;2023-05-10T11:34:10;14.60;90.06
62476;DHT22;50739;45.670;11.936;2023-05-10T11:39:13;14.70;90.06
62476;DHT22;50739;45.670;11.936;2023-05-10T11:44:17;14.70;89.92
62476;DHT22;50739;45.670;11.936;2023-05-10T11:49:20;14.74;90.29
62476;DHT22;50739;45.670;11.936;2023-05-10T11:54:25;14.63;89.83
62476;DHT22;50739;45.670;11.936;2023-05-10T11:59:28;14.65;89.79
62476;DHT22;50739;45.670;11.936;2023-05-10T12:04:31;14.57;89.97
62476;DHT22;50739;45.670;11.936;2023-05-10T12:09:33;14.56;90.14
62476;DHT22;50739;45.670;11.936;2023-05-10T12:14:37;14.48;90.39
62476;DHT22;50739;45.670;11.936;2023-05-10T12:19:39;14.63;90.24
62476;DHT22;50739;45.670;11.936;2023-05-10T12:24:41;14.70;91.05
62476;DHT22;50739;45.670;11.936;2023-05-10T12:29:45;14.74;90.68
62476;DHT22;50739;45.670;11.936;2023-05-10T12:34:47;14.68;90.71
62476;DHT22;50739;45.670;11.936;2023-05-10T12:39:49;14.50;90.22
62476;DHT22;50739;45.670;11.936;2023-05-10T12:44:56;14.57;88.38
62476;DHT22;50739;45.670;11.936;2023-05-10T12:49:59;14.41;89.68
62476;DHT22;50739;45.670;11.936;2023-05-10T12:55:02;14.54;90.02
62476;DHT22;50739;45.670;11.936;2023-05-10T13:00:07;14.56;89.77
62476;DHT22;50739;45.670;11.936;2023-05-10T13:05:10;14.54;90.04
62476;DHT22;50739;45.670;11.936;2023-05-10T13:10:13;14.54;89.53
62476;DHT22;50739;45.670;11.936;2023-05-10T13:15:17;14.64;89.68
62476;DHT22;50739;45.670;11.936;2023-05-10T13:20:19;14.61;90.48
62476;DHT22;50739;45.670;11.936;2023-05-10T13:25:22;14.51;89.98
62476;DHT22;50739;45.670;11.936;2023-05-10T13:30:25;14.71;90.29
62476;DHT22;50739;45.670;11.936;2023-05-10T13:35:27;14.74;91.10
62476;DHT22;50739;45.670;11.936;2023-05-10T13:40:30;14.68;91.08
62476;DHT22;50739;45.670;11.936;2023-05-10T13:45:33;14.80;90.32
62476;DHT22;50739;45.670;11.936;2023-05-10T13:50:35;14.77;91.22
62476;DHT22;50739;45.670;11.936;2023-05-10T13:55:38;14.71;91.80
62476;DHT22;50739;45.670;11.936;2023-05-10T14:00:41;14.61;90.42
62476;DHT22;50739;45.670;11.936;2023-05-10T14:05:44;14.77;90.33
62476;DHT22;50739;45.670;11.936;2023-05-10T14:10:47;14.57;91.14
62476;DHT22;50739;45.670;11.936;2023-05-10T14:15:52;14.56;91.41
62476;DHT22;50739;45.670;11.936;2023-05-10T14:20:54;14.59;90.48
62476;DHT22;50739;45.670;11.936;2023-05-10T14:25:57;14.51;91.34
62476;DHT22;50739;45.670;11.936;2023-05-10T14:31:00;14.60;90.98
62476;DHT22;50739;45.670;11.936;2023-05-10T14:36:03;14.53;91.61
62476;DHT22;50739;45.670;11.936;2023-05-10T14:41:05;14.53;91.44
62476;DHT22;50739;45.670;11.936;2023-05-10T14:46:09;14.65;91.46
62476;DHT22;50739;45.670;11.936;2023-05-10T14:51:11;14.47;91.97
62476;DHT22;50739;45.670;11.936;2023-05-10T14:56:14;14.51;91.42
62476;DHT22;50739;45.670;11.936;2023-05-10T15:01:17;14.44;91.36
62476;DHT22;50739;45.670;11.936;2023-05-10T15:06:23;14.47;91.62
62476;DHT22;50739;45.670;11.936;2023-05-10T15:11:26;14.43;91.84
62476;DHT22;50739;45.670;11.936;2023-05-10T15:16:30;14.32;92.58
62476;DHT22;50739;45.670;11.936;2023-05-10T15:21:32;14.44;92.39
62476;DHT22;50739;45.670;11.936;2023-05-10T15:26:39;14.36;92.93
62476;DHT22;50739;45.670;11.936;2023-05-10T15:31:43;14.39;93.19
62476;DHT22;50739;45.670;11.936;2023-05-10T15:36:45;14.50;92.16
62476;DHT22;50739;45.670;11.936;2023-05-10T15:53:12;14.44;92.34
62476;DHT22;50739;45.670;11.936;2023-05-10T15:58:14;14.43;92.00
62476;DHT22;50739;45.670;11.936;2023-05-10T16:03:16;14.39;91.98
62476;DHT22;50739;45.670;11.936;2023-05-10T16:08:20;14.29;92.81
62476;DHT22;50739;45.670;11.936;2023-05-10T16:13:22;14.16;92.80
62476;DHT22;50739;45.670;11.936;2023-05-10T16:18:24;14.19;92.87
62476;DHT22;50739;45.670;11.936;2023-05-10T16:23:28;14.25;92.48
62476;DHT22;50739;45.670;11.936;2023-05-10T16:28:30;14.25;92.38
62476;DHT22;50739;45.670;11.936;2023-05-10T16:33:33;14.23;93.23
62476;DHT22;50739;45.670;11.936;2023-05-10T16:38:37;14.19;93.07
62476;DHT22;50739;45.670;11.936;2023-05-10T16:43:39;14.33;93.01
62476;DHT22;50739;45.670;11.936;2023-05-10T16:48:41;14.29;92.67
62476;DHT22;50739;45.670;11.936;2023-05-10T16:53:45;14.19;92.88
62476;DHT22;50739;45.670;11.936;2023-05-10T16:58:47;14.20;93.04
62476;DHT22;50739;45.670;11.936;2023-05-10T17:03:50;14.19;92.58
62476;DHT22;50739;45.670;11.936;2023-05-10T17:08:53;14.36;91.51
62476;DHT22;50739;45.670;11.936;2023-05-10T17:13:57;14.43;90.96
62476;DHT22;50739;45.670;11.936;2023-05-10T17:18:59;14.32;92.01
62476;DHT22;50739;45.670;11.936;2023-05-10T17:24:03;14.18;92.31
62476;DHT22;50739;45.670;11.936;2023-05-10T17:29:05;14.16;92.38
62476;DHT22;50739;45.670;11.936;2023-05-10T17:34:08;14.12;92.65
62476;DHT22;50739;45.670;11.936;2023-05-10T17:39:12;14.18;92.34
62476;DHT22;50739;45.670;11.936;2023-05-10T17:44:14;14.08;92.83
62476;DHT22;50739;45.670;11.936;2023-05-10T17:49:16;14.16;92.37
62476;DHT22;50739;45.670;11.936;2023-05-10T17:54:20;14.16;91.96
62476;DHT22;50739;45.670;11.936;2023-05-10T17:59:22;14.19;92.21
62476;DHT22;50739;45.670;11.936;2023-05-10T18:04:25;14.04;92.11
62476;DHT22;50739;45.670;11.936;2023-05-10T18:09:29;14.10;92.37
62476;DHT22;50739;45.670;11.936;2023-05-10T18:14:31;13.92;92.81
62476;DHT22;50739;45.670;11.936;2023-05-10T18:19:35;13.99;92.58
62476;DHT22;50739;45.670;11.936;2023-05-10T18:24:39;13.99;92.98
62476;DHT22;50739;45.670;11.936;2023-05-10T18:29:42;13.94;92.94
62476;DHT22;50739;45.670;11.936;2023-05-10T18:34:44;13.91;93.80
62476;DHT22;50739;45.670;11.936;2023-05-10T18:39:47;13.83;93.97
62476;DHT22;50739;45.670;11.936;2023-05-10T18:44:50;14.02;92.51
62476;DHT22;50739;45.670;11.936;2023-05-10T18:49:52;14.04;92.27
62476;DHT22;50739;45.670;11.936;2023-05-10T18:54:56;14.05;92.29
62476;DHT22;50739;45.670;11.936;2023-05-10T18:59:58;14.02;92.64
62476;DHT22;50739;45.670;11.936;2023-05-10T19:05:01;14.05;92.51
62476;DHT22;50739;45.670;11.936;2023-05-10T19:10:07;13.92;93.32
62476;DHT22;50739;45.670;11.936;2023-05-10T19:15:10;13.97;93.29
62476;DHT22;50739;45.670;11.936;2023-05-10T19:20:13;13.91;93.70
62476;DHT22;50739;45.670;11.936;2023-05-10T19:25:17;13.98;92.95
62476;DHT22;50739;45.670;11.936;2023-05-10T19:30:19;13.98;93.36
62476;DHT22;50739;45.670;11.936;2023-05-10T19:35:22;14.08;92.88
62476;DHT22;50739;45.670;11.936;2023-05-10T19:40:26;14.02;92.80
62476;DHT22;50739;45.670;11.936;2023-05-10T19:45:29;13.99;93.64
62476;DHT22;50739;45.670;11.936;2023-05-10T19:50:32;13.85;94.05
62476;DHT22;50739;45.670;11.936;2023-05-10T19:55:36;13.91;93.94
62476;DHT22;50739;45.670;11.936;2023-05-10T20:00:39;14.04;93.17
62476;DHT22;50739;45.670;11.936;2023-05-10T20:05:41;14.02;93.31
62476;DHT22;50739;45.670;11.936;2023-05-10T20:10:46;14.05;92.97
62476;DHT22;50739;45.670;11.936;2023-05-10T20:15:48;14.02;93.59
62476;DHT22;50739;45.670;11.936;2023-05-10T20:20:56;14.23;92.54
62476;DHT22;50739;45.670;11.936;2023-05-10T20:26:00;14.16;92.76
62476;DHT22;50739;45.670;11.936;2023-05-10T20:31:05;14.08;93.20
62476;DHT22;50739;45.670;11.936;2023-05-10T20:36:08;14.12;92.94
62476;DHT22;50739;45.670;11.936;2023-05-10T20:41:13;14.05;93.36
62476;DHT22;50739;45.670;11.936;2023-05-10T20:46:16;14.15;93.02
62476;DHT22;50739;45.670;11.936;2023-05-10T20:51:19;14.09;93.36
62476;DHT22;50739;45.670;11.936;2023-05-10T20:56:22;14.18;92.84
62476;DHT22;50739;45.670;11.936;2023-05-10T21:01:26;14.16;93.03
62476;DHT22;50739;45.670;11.936;2023-05-10T21:06:28;14.05;93.07
62476;DHT22;50739;45.670;11.936;2023-05-10T21:11:33;14.01;92.75
62476;DHT22;50739;45.670;11.936;2023-05-10T21:16:36;14.04;92.95
62476;DHT22;50739;45.670;11.936;2023-05-10T21:21:38;14.05;92.98
62476;DHT22;50739;45.670;11.936;2023-05-10T21:26:42;14.01;92.76
62476;DHT22;50739;45.670;11.936;2023-05-10T21:31:44;13.99;92.67
62476;DHT22;50739;45.670;11.936;2023-05-10T21:36:46;13.83;93.32
62476;DHT22;50739;45.670;11.936;2023-05-10T21:41:50;13.86;92.75
62476;DHT22;50739;45.670;11.936;2023-05-10T21:46:52;13.94;92.92
62476;DHT22;50739;45.670;11.936;2023-05-10T21:51:55;14.04;92.05
62476;DHT22;50739;45.670;11.936;2023-05-10T21:56:58;13.99;92.25
62476;DHT22;50739;45.670;11.936;2023-05-10T22:02:00;13.97;92.51
62476;DHT22;50739;45.670;11.936;2023-05-10T22:07:03;13.99;91.89
62476;DHT22;50739;45.670;11.936;2023-05-10T22:12:07;13.94;91.78
62476;DHT22;50739;45.670;11.936;2023-05-10T22:17:09;14.08;91.85
62476;DHT22;50739;45.670;11.936;2023-05-10T22:22:11;14.04;91.27
62476;DHT22;50739;45.670;11.936;2023-05-10T22:27:15;13.99;91.20
62476;DHT22;50739;45.670;11.936;2023-05-10T22:32:17;14.08;90.28
62476;DHT22;50739;45.670;11.936;2023-05-10T22:37:20;14.04;90.52
62476;DHT22;50739;45.670;11.936;2023-05-10T22:42:23;13.86;91.56
62476;DHT22;50739;45.670;11.936;2023-05-10T22:47:25;13.85;92.23
62476;DHT22;50739;45.670;11.936;2023-05-10T22:52:28;13.89;91.57
62476;DHT22;50739;45.670;11.936;2023-05-10T22:57:31;13.94;91.59
62476;DHT22;50739;45.670;11.936;2023-05-10T23:02:34;13.78;92.37
62476;DHT22;50739;45.670;11.936;2023-05-10T23:07:36;13.77;92.23
62476;DHT22;50739;45.670;11.936;2023-05-10T23:12:40;13.85;92.45
62476;DHT22;50739;45.670;11.936;2023-05-10T23:17:42;13.82;92.63
62476;DHT22;50739;45.670;11.936;2023-05-10T23:22:44;13.88;92.51
62476;DHT22;50739;45.670;11.936;2023-05-10T23:27:48;13.85;92.73
62476;DHT22;50739;45.670;11.936;2023-05-10T23:32:51;13.82;92.56
62476;DHT22;50739;45.670;11.936;2023-05-10T23:37:53;13.82;92.71
62476;DHT22;50739;45.670;11.936;2023-05-10T23:42:57;13.82;92.57
62476;DHT22;50739;45.670;11.936;2023-05-10T23:48:00;13.81;91.76
62476;DHT22;50739;45.670;11.936;2023-05-10T23:53:03;13.71;91.88
62476;DHT22;50739;45.670;11.936;2023-05-10T23:58:07;13.79;91.26
